sensor_id;sensor_type;location;lat;lon;timestamp;P1;durP1;ratioP1;P2;durP2;ratioP2
14121;SDS011;7139;48.114;11.442;2022-10-16T00:00:35;3.23;;;1.30;;
14121;SDS011;7139;48.114;11.442;2022-10-16T00:03:03;2.50;;;1.47;;
14121;SDS011;7139;48.114;11.442;2022-10-16T00:05:30;4.30;;;1.53;;
14121;SDS011;7139;48.114;11.442;2022-10-16T00:07:58;2.97;;;1.50;;
14121;SDS011;7139;48.114;11.442;2022-10-16T00:10:24;5.57;;;1.50;;
14121;SDS011;7139;48.114;11.442;2022-10-16T00:12:53;2.70;;;1.30;;
14121;SDS011;7139;48.114;11.442;2022-10-16T00:15:19;1.87;;;1.40;;
14121;SDS011;7139;48.114;11.442;2022-10-16T00:17:46;2.30;;;1.50;;
14121;SDS011;7139;48.114;11.442;2022-10-16T00:20:13;5.43;;;1.50;;
14121;SDS011;7139;48.114;11.442;2022-10-16T00:22:40;1.70;;;1.40;;
14121;SDS011;7139;48.114;11.442;2022-10-16T00:25:06;1.67;;;1.40;;
14121;SDS011;7139;48.114;11.442;2022-10-16T00:27:34;5.10;;;1.50;;
14121;SDS011;7139;48.114;11.442;2022-10-16T00:30:02;1.87;;;1.50;;
14121;SDS011;7139;48.114;11.442;2022-10-16T00:32:30;2.37;;;1.50;;
14121;SDS011;7139;48.114;11.442;2022-10-16T00:34:57;1.90;;;1.40;;
14121;SDS011;7139;48.114;11.442;2022-10-16T00:37:23;4.67;;;1.70;;
14121;SDS011;7139;48.114;11.442;2022-10-16T00:39:50;2.40;;;1.20;;
14121;SDS011;7139;48.114;11.442;2022-10-16T00:42:17;1.57;;;1.30;;
14121;SDS011;7139;48.114;11.442;2022-10-16T00:44:46;2.83;;;1.27;;
14121;SDS011;7139;48.114;11.442;2022-10-16T00:47:19;2.47;;;1.40;;
14121;SDS011;7139;48.114;11.442;2022-10-16T00:49:51;2.30;;;1.40;;
14121;SDS011;7139;48.114;11.442;2022-10-16T00:52:21;2.53;;;1.40;;
14121;SDS011;7139;48.114;11.442;2022-10-16T00:54:48;1.97;;;1.53;;
14121;SDS011;7139;48.114;11.442;2022-10-16T00:57:16;2.23;;;1.37;;
14121;SDS011;7139;48.114;11.442;2022-10-16T00:59:43;4.67;;;1.60;;
14121;SDS011;7139;48.114;11.442;2022-10-16T01:02:12;3.40;;;1.50;;
14121;SDS011;7139;48.114;11.442;2022-10-16T01:04:42;1.40;;;1.30;;
14121;SDS011;7139;48.114;11.442;2022-10-16T01:07:12;1.60;;;1.50;;
14121;SDS011;7139;48.114;11.442;2022-10-16T01:09:51;4.33;;;1.60;;
14121;SDS011;7139;48.114;11.442;2022-10-16T01:12:26;3.07;;;1.47;;
14121;SDS011;7139;48.114;11.442;2022-10-16T01:15:04;2.90;;;1.50;;
14121;SDS011;7139;48.114;11.442;2022-10-16T01:17:38;4.47;;;1.47;;
14121;SDS011;7139;48.114;11.442;2022-10-16T01:20:11;3.57;;;1.30;;
14121;SDS011;7139;48.114;11.442;2022-10-16T01:22:49;1.77;;;1.60;;
14121;SDS011;7139;48.114;11.442;2022-10-16T01:25:25;1.53;;;1.43;;
14121;SDS011;7139;48.114;11.442;2022-10-16T01:28:04;1.93;;;1.40;;
14121;SDS011;7139;48.114;11.442;2022-10-16T01:30:37;2.83;;;1.50;;
14121;SDS011;7139;48.114;11.442;2022-10-16T01:33:06;2.03;;;1.60;;
14121;SDS011;7139;48.114;11.442;2022-10-16T01:35:40;1.63;;;1.53;;
14121;SDS011;7139;48.114;11.442;2022-10-16T01:38:12;3.03;;;1.67;;
14121;SDS011;7139;48.114;11.442;2022-10-16T01:40:44;1.60;;;1.50;;
14121;SDS011;7139;48.114;11.442;2022-10-16T01:43:15;2.13;;;1.53;;
14121;SDS011;7139;48.114;11.442;2022-10-16T01:45:45;1.60;;;1.50;;
14121;SDS011;7139;48.114;11.442;2022-10-16T01:48:12;3.20;;;1.50;;
14121;SDS011;7139;48.114;11.442;2022-10-16T01:50:43;1.80;;;1.57;;
14121;SDS011;7139;48.114;11.442;2022-10-16T01:53:15;2.83;;;1.70;;
14121;SDS011;7139;48.114;11.442;2022-10-16T01:55:43;2.87;;;1.43;;
14121;SDS011;7139;48.114;11.442;2022-10-16T01:58:12;2.30;;;1.57;;
14121;SDS011;7139;48.114;11.442;2022-10-16T02:00:42;2.07;;;1.60;;
14121;SDS011;7139;48.114;11.442;2022-10-16T02:03:13;3.40;;;2.00;;
14121;SDS011;7139;48.114;11.442;2022-10-16T02:05:42;2.87;;;1.63;;
14121;SDS011;7139;48.114;11.442;2022-10-16T02:08:12;3.20;;;1.60;;
14121;SDS011;7139;48.114;11.442;2022-10-16T02:10:39;2.17;;;1.50;;
14121;SDS011;7139;48.114;11.442;2022-10-16T02:13:07;2.20;;;1.80;;
14121;SDS011;7139;48.114;11.442;2022-10-16T02:15:39;1.60;;;1.50;;
14121;SDS011;7139;48.114;11.442;2022-10-16T02:18:06;2.40;;;1.80;;
14121;SDS011;7139;48.114;11.442;2022-10-16T02:20:34;2.23;;;1.80;;
14121;SDS011;7139;48.114;11.442;2022-10-16T02:23:06;4.23;;;1.67;;
14121;SDS011;7139;48.114;11.442;2022-10-16T02:25:37;2.70;;;1.60;;
14121;SDS011;7139;48.114;11.442;2022-10-16T02:28:08;3.17;;;1.80;;
14121;SDS011;7139;48.114;11.442;2022-10-16T02:30:44;1.93;;;1.73;;
14121;SDS011;7139;48.114;11.442;2022-10-16T02:33:13;2.53;;;1.90;;
14121;SDS011;7139;48.114;11.442;2022-10-16T02:35:42;2.00;;;1.77;;
14121;SDS011;7139;48.114;11.442;2022-10-16T02:38:12;2.43;;;1.73;;
14121;SDS011;7139;48.114;11.442;2022-10-16T02:40:40;1.73;;;1.63;;
14121;SDS011;7139;48.114;11.442;2022-10-16T02:43:07;3.13;;;1.77;;
14121;SDS011;7139;48.114;11.442;2022-10-16T02:45:34;3.10;;;1.70;;
14121;SDS011;7139;48.114;11.442;2022-10-16T02:48:03;4.13;;;1.93;;
14121;SDS011;7139;48.114;11.442;2022-10-16T02:50:30;2.57;;;1.70;;
14121;SDS011;7139;48.114;11.442;2022-10-16T02:52:56;3.10;;;1.70;;
14121;SDS011;7139;48.114;11.442;2022-10-16T02:55:23;2.23;;;2.00;;
14121;SDS011;7139;48.114;11.442;2022-10-16T02:57:50;2.70;;;1.70;;
14121;SDS011;7139;48.114;11.442;2022-10-16T03:00:17;2.83;;;1.90;;
14121;SDS011;7139;48.114;11.442;2022-10-16T03:02:44;3.67;;;1.90;;
14121;SDS011;7139;48.114;11.442;2022-10-16T03:05:13;3.77;;;1.70;;
14121;SDS011;7139;48.114;11.442;2022-10-16T03:07:40;1.77;;;1.67;;
14121;SDS011;7139;48.114;11.442;2022-10-16T03:10:07;3.17;;;1.60;;
14121;SDS011;7139;48.114;11.442;2022-10-16T03:12:34;5.13;;;1.87;;
14121;SDS011;7139;48.114;11.442;2022-10-16T03:15:01;3.30;;;1.70;;
14121;SDS011;7139;48.114;11.442;2022-10-16T03:17:28;4.70;;;1.87;;
14121;SDS011;7139;48.114;11.442;2022-10-16T03:19:55;2.73;;;1.63;;
14121;SDS011;7139;48.114;11.442;2022-10-16T03:22:23;4.70;;;1.77;;
14121;SDS011;7139;48.114;11.442;2022-10-16T03:24:50;3.57;;;2.00;;
14121;SDS011;7139;48.114;11.442;2022-10-16T03:27:17;3.07;;;1.63;;
14121;SDS011;7139;48.114;11.442;2022-10-16T03:29:44;4.00;;;1.83;;
14121;SDS011;7139;48.114;11.442;2022-10-16T03:32:11;3.30;;;1.70;;
14121;SDS011;7139;48.114;11.442;2022-10-16T03:34:37;2.37;;;1.70;;
14121;SDS011;7139;48.114;11.442;2022-10-16T03:37:04;3.00;;;1.80;;
14121;SDS011;7139;48.114;11.442;2022-10-16T03:39:33;3.73;;;1.70;;
14121;SDS011;7139;48.114;11.442;2022-10-16T03:41:59;2.23;;;1.60;;
14121;SDS011;7139;48.114;11.442;2022-10-16T03:44:26;1.77;;;1.67;;
14121;SDS011;7139;48.114;11.442;2022-10-16T03:46:53;2.43;;;1.60;;
14121;SDS011;7139;48.114;11.442;2022-10-16T03:49:20;2.10;;;1.90;;
14121;SDS011;7139;48.114;11.442;2022-10-16T03:51:46;3.43;;;1.90;;
14121;SDS011;7139;48.114;11.442;2022-10-16T03:54:13;2.57;;;1.30;;
14121;SDS011;7139;48.114;11.442;2022-10-16T03:56:41;2.10;;;1.90;;
14121;SDS011;7139;48.114;11.442;2022-10-16T03:59:08;1.90;;;1.60;;
14121;SDS011;7139;48.114;11.442;2022-10-16T04:01:35;3.77;;;1.67;;
14121;SDS011;7139;48.114;11.442;2022-10-16T04:04:01;2.07;;;1.60;;
14121;SDS011;7139;48.114;11.442;2022-10-16T04:06:28;1.93;;;1.83;;
14121;SDS011;7139;48.114;11.442;2022-10-16T04:08:55;3.83;;;1.90;;
14121;SDS011;7139;48.114;11.442;2022-10-16T04:11:22;2.90;;;1.70;;
14121;SDS011;7139;48.114;11.442;2022-10-16T04:13:50;2.07;;;1.50;;
14121;SDS011;7139;48.114;11.442;2022-10-16T04:16:17;2.47;;;1.70;;
14121;SDS011;7139;48.114;11.442;2022-10-16T04:18:44;3.33;;;1.60;;
14121;SDS011;7139;48.114;11.442;2022-10-16T04:21:11;1.97;;;1.80;;
14121;SDS011;7139;48.114;11.442;2022-10-16T04:23:38;1.87;;;1.60;;
14121;SDS011;7139;48.114;11.442;2022-10-16T04:26:04;3.10;;;1.70;;
14121;SDS011;7139;48.114;11.442;2022-10-16T04:28:31;1.97;;;1.70;;
14121;SDS011;7139;48.114;11.442;2022-10-16T04:31:00;1.57;;;1.47;;
14121;SDS011;7139;48.114;11.442;2022-10-16T04:33:29;1.93;;;1.80;;
14121;SDS011;7139;48.114;11.442;2022-10-16T04:35:56;2.47;;;1.67;;
14121;SDS011;7139;48.114;11.442;2022-10-16T04:38:23;2.23;;;1.70;;
14121;SDS011;7139;48.114;11.442;2022-10-16T04:40:50;2.50;;;1.40;;
14121;SDS011;7139;48.114;11.442;2022-10-16T04:43:17;3.97;;;1.70;;
14121;SDS011;7139;48.114;11.442;2022-10-16T04:45:43;3.40;;;1.60;;
14121;SDS011;7139;48.114;11.442;2022-10-16T04:48:12;4.57;;;1.80;;
14121;SDS011;7139;48.114;11.442;2022-10-16T04:50:39;3.43;;;1.60;;
14121;SDS011;7139;48.114;11.442;2022-10-16T04:53:05;1.83;;;1.43;;
14121;SDS011;7139;48.114;11.442;2022-10-16T04:55:32;2.27;;;1.60;;
14121;SDS011;7139;48.114;11.442;2022-10-16T04:57:59;5.20;;;1.63;;
14121;SDS011;7139;48.114;11.442;2022-10-16T05:00:26;2.90;;;1.70;;
14121;SDS011;7139;48.114;11.442;2022-10-16T05:02:53;4.27;;;1.63;;
14121;SDS011;7139;48.114;11.442;2022-10-16T05:05:21;3.67;;;1.70;;
14121;SDS011;7139;48.114;11.442;2022-10-16T05:07:48;3.90;;;1.70;;
14121;SDS011;7139;48.114;11.442;2022-10-16T05:10:15;2.17;;;1.70;;
14121;SDS011;7139;48.114;11.442;2022-10-16T05:12:42;2.53;;;1.77;;
14121;SDS011;7139;48.114;11.442;2022-10-16T05:15:09;3.17;;;1.80;;
14121;SDS011;7139;48.114;11.442;2022-10-16T05:17:37;3.63;;;1.97;;
14121;SDS011;7139;48.114;11.442;2022-10-16T05:20:04;2.57;;;1.90;;
14121;SDS011;7139;48.114;11.442;2022-10-16T05:22:33;3.73;;;2.03;;
14121;SDS011;7139;48.114;11.442;2022-10-16T05:24:59;4.00;;;1.90;;
14121;SDS011;7139;48.114;11.442;2022-10-16T05:27:26;2.83;;;1.80;;
14121;SDS011;7139;48.114;11.442;2022-10-16T05:29:53;2.27;;;1.77;;
14121;SDS011;7139;48.114;11.442;2022-10-16T05:32:20;2.67;;;1.70;;
14121;SDS011;7139;48.114;11.442;2022-10-16T05:34:46;2.13;;;1.50;;
14121;SDS011;7139;48.114;11.442;2022-10-16T05:37:13;2.80;;;1.80;;
14121;SDS011;7139;48.114;11.442;2022-10-16T05:39:41;3.23;;;2.00;;
14121;SDS011;7139;48.114;11.442;2022-10-16T05:42:08;2.27;;;1.60;;
14121;SDS011;7139;48.114;11.442;2022-10-16T05:44:35;4.47;;;1.83;;
14121;SDS011;7139;48.114;11.442;2022-10-16T05:47:02;2.70;;;1.80;;
14121;SDS011;7139;48.114;11.442;2022-10-16T05:49:28;1.50;;;1.40;;
14121;SDS011;7139;48.114;11.442;2022-10-16T05:51:56;2.00;;;1.80;;
14121;SDS011;7139;48.114;11.442;2022-10-16T05:54:22;1.93;;;1.70;;
14121;SDS011;7139;48.114;11.442;2022-10-16T05:56:50;1.73;;;1.60;;
14121;SDS011;7139;48.114;11.442;2022-10-16T05:59:17;2.40;;;1.90;;
14121;SDS011;7139;48.114;11.442;2022-10-16T06:01:44;2.43;;;1.70;;
14121;SDS011;7139;48.114;11.442;2022-10-16T06:04:11;3.63;;;1.90;;
14121;SDS011;7139;48.114;11.442;2022-10-16T06:06:38;2.53;;;2.00;;
14121;SDS011;7139;48.114;11.442;2022-10-16T06:09:04;2.10;;;1.97;;
14121;SDS011;7139;48.114;11.442;2022-10-16T06:11:32;2.83;;;2.07;;
14121;SDS011;7139;48.114;11.442;2022-10-16T06:14:01;2.13;;;1.80;;
14121;SDS011;7139;48.114;11.442;2022-10-16T06:16:31;3.13;;;2.00;;
14121;SDS011;7139;48.114;11.442;2022-10-16T06:18:58;2.03;;;1.93;;
14121;SDS011;7139;48.114;11.442;2022-10-16T06:21:25;2.33;;;2.00;;
14121;SDS011;7139;48.114;11.442;2022-10-16T06:23:53;2.63;;;2.03;;
14121;SDS011;7139;48.114;11.442;2022-10-16T06:26:22;3.60;;;2.10;;
14121;SDS011;7139;48.114;11.442;2022-10-16T06:28:51;2.17;;;1.97;;
14121;SDS011;7139;48.114;11.442;2022-10-16T06:31:19;2.07;;;1.80;;
14121;SDS011;7139;48.114;11.442;2022-10-16T06:33:49;2.37;;;2.00;;
14121;SDS011;7139;48.114;11.442;2022-10-16T06:36:17;3.03;;;1.80;;
14121;SDS011;7139;48.114;11.442;2022-10-16T06:38:44;2.23;;;1.90;;
14121;SDS011;7139;48.114;11.442;2022-10-16T06:41:11;2.37;;;1.93;;
14121;SDS011;7139;48.114;11.442;2022-10-16T06:43:40;3.03;;;1.97;;
14121;SDS011;7139;48.114;11.442;2022-10-16T06:46:07;2.10;;;1.90;;
14121;SDS011;7139;48.114;11.442;2022-10-16T06:48:37;2.70;;;1.90;;
14121;SDS011;7139;48.114;11.442;2022-10-16T06:51:05;1.93;;;1.83;;
14121;SDS011;7139;48.114;11.442;2022-10-16T06:53:35;2.40;;;2.20;;
14121;SDS011;7139;48.114;11.442;2022-10-16T06:56:06;2.40;;;1.80;;
14121;SDS011;7139;48.114;11.442;2022-10-16T06:58:34;3.23;;;2.00;;
14121;SDS011;7139;48.114;11.442;2022-10-16T07:01:01;3.60;;;2.27;;
14121;SDS011;7139;48.114;11.442;2022-10-16T07:03:28;2.90;;;1.93;;
14121;SDS011;7139;48.114;11.442;2022-10-16T07:05:56;2.17;;;1.70;;
14121;SDS011;7139;48.114;11.442;2022-10-16T07:08:23;2.43;;;2.03;;
14121;SDS011;7139;48.114;11.442;2022-10-16T07:10:57;2.17;;;1.97;;
14121;SDS011;7139;48.114;11.442;2022-10-16T07:13:24;4.30;;;2.03;;
14121;SDS011;7139;48.114;11.442;2022-10-16T07:15:51;2.00;;;1.90;;
14121;SDS011;7139;48.114;11.442;2022-10-16T07:18:18;2.87;;;2.10;;
14121;SDS011;7139;48.114;11.442;2022-10-16T07:20:45;2.40;;;2.00;;
14121;SDS011;7139;48.114;11.442;2022-10-16T07:23:13;2.33;;;1.90;;
14121;SDS011;7139;48.114;11.442;2022-10-16T07:25:39;2.63;;;1.73;;
14121;SDS011;7139;48.114;11.442;2022-10-16T07:28:06;2.40;;;2.20;;
14121;SDS011;7139;48.114;11.442;2022-10-16T07:30:34;2.17;;;2.03;;
14121;SDS011;7139;48.114;11.442;2022-10-16T07:33:02;3.40;;;2.20;;
14121;SDS011;7139;48.114;11.442;2022-10-16T07:35:29;2.40;;;2.20;;
14121;SDS011;7139;48.114;11.442;2022-10-16T07:37:56;2.40;;;2.20;;
14121;SDS011;7139;48.114;11.442;2022-10-16T07:40:24;2.77;;;2.20;;
14121;SDS011;7139;48.114;11.442;2022-10-16T07:42:52;4.50;;;2.50;;
14121;SDS011;7139;48.114;11.442;2022-10-16T07:45:18;3.20;;;2.10;;
14121;SDS011;7139;48.114;11.442;2022-10-16T07:47:45;2.33;;;2.13;;
14121;SDS011;7139;48.114;11.442;2022-10-16T07:50:12;2.50;;;2.30;;
14121;SDS011;7139;48.114;11.442;2022-10-16T07:52:39;2.63;;;2.30;;
14121;SDS011;7139;48.114;11.442;2022-10-16T07:55:06;2.43;;;2.23;;
14121;SDS011;7139;48.114;11.442;2022-10-16T07:57:34;3.63;;;2.60;;
14121;SDS011;7139;48.114;11.442;2022-10-16T08:00:02;2.60;;;2.40;;
14121;SDS011;7139;48.114;11.442;2022-10-16T08:02:29;3.43;;;2.53;;
14121;SDS011;7139;48.114;11.442;2022-10-16T08:04:57;2.57;;;2.37;;
14121;SDS011;7139;48.114;11.442;2022-10-16T08:07:23;3.07;;;2.80;;
14121;SDS011;7139;48.114;11.442;2022-10-16T08:09:50;2.80;;;2.60;;
14121;SDS011;7139;48.114;11.442;2022-10-16T08:12:17;3.20;;;2.73;;
14121;SDS011;7139;48.114;11.442;2022-10-16T08:14:45;3.30;;;3.00;;
14121;SDS011;7139;48.114;11.442;2022-10-16T08:17:13;3.00;;;2.70;;
14121;SDS011;7139;48.114;11.442;2022-10-16T08:19:43;3.20;;;2.90;;
14121;SDS011;7139;48.114;11.442;2022-10-16T08:22:10;3.00;;;2.77;;
14121;SDS011;7139;48.114;11.442;2022-10-16T08:24:37;3.87;;;2.60;;
14121;SDS011;7139;48.114;11.442;2022-10-16T08:27:04;3.10;;;2.80;;
14121;SDS011;7139;48.114;11.442;2022-10-16T08:29:31;3.33;;;2.63;;
14121;SDS011;7139;48.114;11.442;2022-10-16T08:32:00;3.13;;;2.83;;
14121;SDS011;7139;48.114;11.442;2022-10-16T08:34:27;3.13;;;2.70;;
14121;SDS011;7139;48.114;11.442;2022-10-16T08:36:53;2.77;;;2.57;;
14121;SDS011;7139;48.114;11.442;2022-10-16T08:39:20;3.20;;;2.90;;
14121;SDS011;7139;48.114;11.442;2022-10-16T08:47:39;3.03;;;2.70;;
14121;SDS011;7139;48.114;11.442;2022-10-16T08:50:14;3.03;;;2.80;;
14121;SDS011;7139;48.114;11.442;2022-10-16T08:52:47;4.27;;;2.90;;
14121;SDS011;7139;48.114;11.442;2022-10-16T08:55:17;3.10;;;2.70;;
14121;SDS011;7139;48.114;11.442;2022-10-16T08:57:55;3.07;;;2.87;;
14121;SDS011;7139;48.114;11.442;2022-10-16T09:00:22;2.70;;;2.50;;
14121;SDS011;7139;48.114;11.442;2022-10-16T09:02:52;2.93;;;2.40;;
14121;SDS011;7139;48.114;11.442;2022-10-16T09:08:22;3.57;;;2.67;;
14121;SDS011;7139;48.114;11.442;2022-10-16T09:10:57;3.10;;;2.90;;
14121;SDS011;7139;48.114;11.442;2022-10-16T09:13:40;2.80;;;2.60;;
14121;SDS011;7139;48.114;11.442;2022-10-16T09:16:15;2.77;;;2.57;;
14121;SDS011;7139;48.114;11.442;2022-10-16T09:18:51;2.80;;;2.57;;
14121;SDS011;7139;48.114;11.442;2022-10-16T09:21:25;2.70;;;2.50;;
14121;SDS011;7139;48.114;11.442;2022-10-16T09:23:56;2.77;;;2.50;;
14121;SDS011;7139;48.114;11.442;2022-10-16T09:26:24;4.10;;;2.80;;
14121;SDS011;7139;48.114;11.442;2022-10-16T09:28:51;3.93;;;2.53;;
14121;SDS011;7139;48.114;11.442;2022-10-16T09:31:20;2.80;;;2.30;;
14121;SDS011;7139;48.114;11.442;2022-10-16T09:33:50;3.50;;;2.80;;
14121;SDS011;7139;48.114;11.442;2022-10-16T09:36:20;2.60;;;2.40;;
14121;SDS011;7139;48.114;11.442;2022-10-16T09:38:47;2.60;;;2.40;;
14121;SDS011;7139;48.114;11.442;2022-10-16T09:41:16;2.50;;;2.30;;
14121;SDS011;7139;48.114;11.442;2022-10-16T09:43:48;3.10;;;2.33;;
14121;SDS011;7139;48.114;11.442;2022-10-16T09:46:21;2.27;;;2.07;;
14121;SDS011;7139;48.114;11.442;2022-10-16T09:48:55;2.90;;;2.10;;
14121;SDS011;7139;48.114;11.442;2022-10-16T09:51:24;2.67;;;2.27;;
14121;SDS011;7139;48.114;11.442;2022-10-16T09:53:57;2.20;;;2.10;;
14121;SDS011;7139;48.114;11.442;2022-10-16T09:56:26;2.97;;;2.20;;
14121;SDS011;7139;48.114;11.442;2022-10-16T09:58:54;2.47;;;1.97;;
14121;SDS011;7139;48.114;11.442;2022-10-16T10:01:23;2.57;;;2.07;;
14121;SDS011;7139;48.114;11.442;2022-10-16T10:03:57;2.40;;;2.20;;
14121;SDS011;7139;48.114;11.442;2022-10-16T10:06:28;2.30;;;1.93;;
14121;SDS011;7139;48.114;11.442;2022-10-16T10:09:03;2.60;;;2.20;;
14121;SDS011;7139;48.114;11.442;2022-10-16T10:11:36;2.30;;;2.10;;
14121;SDS011;7139;48.114;11.442;2022-10-16T10:14:16;2.30;;;2.10;;
14121;SDS011;7139;48.114;11.442;2022-10-16T10:16:49;2.63;;;2.20;;
14121;SDS011;7139;48.114;11.442;2022-10-16T10:19:19;3.47;;;2.47;;
14121;SDS011;7139;48.114;11.442;2022-10-16T10:21:47;3.00;;;1.77;;
14121;SDS011;7139;48.114;11.442;2022-10-16T10:24:15;2.23;;;2.13;;
14121;SDS011;7139;48.114;11.442;2022-10-16T10:26:45;3.70;;;2.20;;
14121;SDS011;7139;48.114;11.442;2022-10-16T10:29:19;2.20;;;2.10;;
14121;SDS011;7139;48.114;11.442;2022-10-16T10:31:59;2.90;;;2.00;;
14121;SDS011;7139;48.114;11.442;2022-10-16T10:34:41;3.20;;;2.20;;
14121;SDS011;7139;48.114;11.442;2022-10-16T10:37:31;2.20;;;2.00;;
14121;SDS011;7139;48.114;11.442;2022-10-16T10:40:12;2.00;;;1.80;;
14121;SDS011;7139;48.114;11.442;2022-10-16T10:42:44;2.27;;;2.07;;
14121;SDS011;7139;48.114;11.442;2022-10-16T10:45:17;2.13;;;2.00;;
14121;SDS011;7139;48.114;11.442;2022-10-16T10:47:51;2.53;;;1.90;;
14121;SDS011;7139;48.114;11.442;2022-10-16T10:50:33;2.70;;;1.90;;
14121;SDS011;7139;48.114;11.442;2022-10-16T10:53:07;2.70;;;2.23;;
14121;SDS011;7139;48.114;11.442;2022-10-16T10:55:43;2.00;;;1.90;;
14121;SDS011;7139;48.114;11.442;2022-10-16T10:58:35;1.80;;;1.70;;
14121;SDS011;7139;48.114;11.442;2022-10-16T11:01:15;2.70;;;1.80;;
14121;SDS011;7139;48.114;11.442;2022-10-16T11:03:58;2.10;;;1.90;;
14121;SDS011;7139;48.114;11.442;2022-10-16T11:06:42;2.23;;;2.03;;
14121;SDS011;7139;48.114;11.442;2022-10-16T11:09:13;2.20;;;2.00;;
14121;SDS011;7139;48.114;11.442;2022-10-16T11:11:45;2.10;;;1.90;;
14121;SDS011;7139;48.114;11.442;2022-10-16T11:14:17;3.10;;;2.17;;
14121;SDS011;7139;48.114;11.442;2022-10-16T11:16:48;2.30;;;2.10;;
14121;SDS011;7139;48.114;11.442;2022-10-16T11:19:22;2.87;;;2.37;;
14121;SDS011;7139;48.114;11.442;2022-10-16T11:22:01;3.43;;;2.73;;
14121;SDS011;7139;48.114;11.442;2022-10-16T11:24:35;2.93;;;2.40;;
14121;SDS011;7139;48.114;11.442;2022-10-16T11:27:08;2.63;;;2.20;;
14121;SDS011;7139;48.114;11.442;2022-10-16T11:29:43;2.53;;;2.33;;
14121;SDS011;7139;48.114;11.442;2022-10-16T11:32:17;2.33;;;2.13;;
14121;SDS011;7139;48.114;11.442;2022-10-16T11:34:49;2.10;;;1.90;;
14121;SDS011;7139;48.114;11.442;2022-10-16T11:37:21;3.17;;;1.90;;
14121;SDS011;7139;48.114;11.442;2022-10-16T11:39:54;1.83;;;1.67;;
14121;SDS011;7139;48.114;11.442;2022-10-16T11:42:27;1.63;;;1.50;;
14121;SDS011;7139;48.114;11.442;2022-10-16T11:45:00;1.90;;;1.40;;
14121;SDS011;7139;48.114;11.442;2022-10-16T11:47:35;1.83;;;1.73;;
14121;SDS011;7139;48.114;11.442;2022-10-16T11:50:09;2.30;;;1.80;;
14121;SDS011;7139;48.114;11.442;2022-10-16T11:52:47;3.20;;;1.70;;
14121;SDS011;7139;48.114;11.442;2022-10-16T11:55:22;2.40;;;1.57;;
14121;SDS011;7139;48.114;11.442;2022-10-16T11:57:57;2.33;;;1.90;;
14121;SDS011;7139;48.114;11.442;2022-10-16T12:00:28;2.63;;;1.65;;
14121;SDS011;7139;48.114;11.442;2022-10-16T12:03:00;4.40;;;3.33;;
14121;SDS011;7139;48.114;11.442;2022-10-16T12:05:40;4.78;;;3.15;;
14121;SDS011;7139;48.114;11.442;2022-10-16T12:08:22;5.30;;;1.70;;
14121;SDS011;7139;48.114;11.442;2022-10-16T12:10:50;1.55;;;1.42;;
14121;SDS011;7139;48.114;11.442;2022-10-16T12:13:28;3.00;;;1.55;;
14121;SDS011;7139;48.114;11.442;2022-10-16T12:16:03;3.22;;;2.90;;
14121;SDS011;7139;48.114;11.442;2022-10-16T12:18:32;1.70;;;1.60;;
14121;SDS011;7139;48.114;11.442;2022-10-16T12:20:59;2.40;;;2.20;;
14121;SDS011;7139;48.114;11.442;2022-10-16T12:23:31;2.42;;;1.67;;
14121;SDS011;7139;48.114;11.442;2022-10-16T12:25:59;2.10;;;1.90;;
14121;SDS011;7139;48.114;11.442;2022-10-16T12:28:27;3.28;;;1.80;;
14121;SDS011;7139;48.114;11.442;2022-10-16T12:30:56;1.55;;;1.45;;
14121;SDS011;7139;48.114;11.442;2022-10-16T12:33:25;1.73;;;1.63;;
14121;SDS011;7139;48.114;11.442;2022-10-16T12:35:54;1.85;;;1.35;;
14121;SDS011;7139;48.114;11.442;2022-10-16T12:38:27;1.50;;;1.35;;
14121;SDS011;7139;48.114;11.442;2022-10-16T12:40:59;2.08;;;1.40;;
14121;SDS011;7139;48.114;11.442;2022-10-16T12:43:36;2.45;;;1.33;;
14121;SDS011;7139;48.114;11.442;2022-10-16T12:46:05;1.58;;;1.27;;
14121;SDS011;7139;48.114;11.442;2022-10-16T12:48:47;1.42;;;1.23;;
14121;SDS011;7139;48.114;11.442;2022-10-16T12:51:24;1.98;;;1.08;;
14121;SDS011;7139;48.114;11.442;2022-10-16T12:54:01;1.25;;;1.15;;
14121;SDS011;7139;48.114;11.442;2022-10-16T12:56:34;1.60;;;1.10;;
14121;SDS011;7139;48.114;11.442;2022-10-16T12:59:15;0.98;;;0.90;;
14121;SDS011;7139;48.114;11.442;2022-10-16T13:01:54;3.75;;;1.17;;
14121;SDS011;7139;48.114;11.442;2022-10-16T13:04:36;2.85;;;1.35;;
14121;SDS011;7139;48.114;11.442;2022-10-16T13:07:17;1.55;;;1.17;;
14121;SDS011;7139;48.114;11.442;2022-10-16T13:09:55;2.47;;;1.58;;
14121;SDS011;7139;48.114;11.442;2022-10-16T13:12:40;3.00;;;2.20;;
14121;SDS011;7139;48.114;11.442;2022-10-16T13:15:22;3.60;;;2.30;;
14121;SDS011;7139;48.114;11.442;2022-10-16T13:17:59;1.88;;;1.30;;
14121;SDS011;7139;48.114;11.442;2022-10-16T13:20:33;2.70;;;1.65;;
14121;SDS011;7139;48.114;11.442;2022-10-16T13:23:18;0.82;;;0.80;;
14121;SDS011;7139;48.114;11.442;2022-10-16T13:25:54;1.23;;;1.13;;
14121;SDS011;7139;48.114;11.442;2022-10-16T13:28:32;1.50;;;1.10;;
14121;SDS011;7139;48.114;11.442;2022-10-16T13:31:01;2.05;;;1.40;;
14121;SDS011;7139;48.114;11.442;2022-10-16T13:33:30;1.60;;;1.30;;
14121;SDS011;7139;48.114;11.442;2022-10-16T13:35:59;1.10;;;1.00;;
14121;SDS011;7139;48.114;11.442;2022-10-16T13:38:26;2.10;;;0.90;;
14121;SDS011;7139;48.114;11.442;2022-10-16T13:40:54;1.88;;;1.13;;
14121;SDS011;7139;48.114;11.442;2022-10-16T13:43:23;1.30;;;1.20;;
14121;SDS011;7139;48.114;11.442;2022-10-16T13:45:56;1.60;;;1.30;;
14121;SDS011;7139;48.114;11.442;2022-10-16T13:48:25;1.00;;;1.00;;
14121;SDS011;7139;48.114;11.442;2022-10-16T13:51:02;1.20;;;0.90;;
14121;SDS011;7139;48.114;11.442;2022-10-16T13:53:32;1.17;;;1.10;;
14121;SDS011;7139;48.114;11.442;2022-10-16T13:56:02;1.05;;;0.95;;
14121;SDS011;7139;48.114;11.442;2022-10-16T13:58:29;1.50;;;1.10;;
14121;SDS011;7139;48.114;11.442;2022-10-16T14:00:58;1.30;;;0.90;;
14121;SDS011;7139;48.114;11.442;2022-10-16T14:03:27;1.00;;;1.00;;
14121;SDS011;7139;48.114;11.442;2022-10-16T14:05:55;1.83;;;1.13;;
14121;SDS011;7139;48.114;11.442;2022-10-16T14:08:24;2.30;;;1.00;;
14121;SDS011;7139;48.114;11.442;2022-10-16T14:10:53;1.00;;;1.00;;
14121;SDS011;7139;48.114;11.442;2022-10-16T14:13:24;1.50;;;1.38;;
14121;SDS011;7139;48.114;11.442;2022-10-16T14:15:57;1.30;;;1.20;;
14121;SDS011;7139;48.114;11.442;2022-10-16T14:18:28;1.00;;;0.90;;
14121;SDS011;7139;48.114;11.442;2022-10-16T14:21:01;1.30;;;1.05;;
14121;SDS011;7139;48.114;11.442;2022-10-16T14:23:29;3.17;;;1.20;;
14121;SDS011;7139;48.114;11.442;2022-10-16T14:26:05;1.65;;;1.10;;
14121;SDS011;7139;48.114;11.442;2022-10-16T14:28:39;1.27;;;1.17;;
14121;SDS011;7139;48.114;11.442;2022-10-16T14:31:22;3.10;;;1.30;;
14121;SDS011;7139;48.114;11.442;2022-10-16T14:33:51;2.15;;;0.95;;
14121;SDS011;7139;48.114;11.442;2022-10-16T14:36:18;1.52;;;1.33;;
14121;SDS011;7139;48.114;11.442;2022-10-16T14:38:48;1.65;;;1.40;;
14121;SDS011;7139;48.114;11.442;2022-10-16T14:41:19;1.65;;;1.23;;
14121;SDS011;7139;48.114;11.442;2022-10-16T14:43:49;2.97;;;1.30;;
14121;SDS011;7139;48.114;11.442;2022-10-16T14:46:19;2.35;;;1.10;;
14121;SDS011;7139;48.114;11.442;2022-10-16T14:48:51;2.33;;;1.30;;
14121;SDS011;7139;48.114;11.442;2022-10-16T14:51:23;1.35;;;1.25;;
14121;SDS011;7139;48.114;11.442;2022-10-16T14:53:50;2.05;;;1.10;;
14121;SDS011;7139;48.114;11.442;2022-10-16T14:56:17;1.20;;;1.10;;
14121;SDS011;7139;48.114;11.442;2022-10-16T14:58:46;1.20;;;1.10;;
14121;SDS011;7139;48.114;11.442;2022-10-16T15:01:12;1.30;;;1.20;;
14121;SDS011;7139;48.114;11.442;2022-10-16T15:03:41;2.05;;;1.10;;
14121;SDS011;7139;48.114;11.442;2022-10-16T15:06:09;1.10;;;1.02;;
14121;SDS011;7139;48.114;11.442;2022-10-16T15:08:37;1.70;;;1.03;;
14121;SDS011;7139;48.114;11.442;2022-10-16T15:11:04;1.77;;;1.15;;
14121;SDS011;7139;48.114;11.442;2022-10-16T15:13:32;1.40;;;1.23;;